Time;durP1;ratioP1;P1;durP2;ratioP2;P2;SDS_P1;SDS_P2;PMS_P1;PMS_P2;Temp;Humidity;BMP_temperature;BMP_pressure;BME280_temperature;BME280_humidity;BME280_pressure;Samples;Min_cycle;Max_cycle;Signal;HPM_P1;HPM_P2
2020/12/03 00:00:55;;;;;;;48.33;19.88;;;1.10;77.40;;;;;;4996381;28;20062;-63
2020/12/03 00:03:22;;;;;;;48.22;20.58;;;1.10;77.40;;;;;;5013465;28;20033;-63
2020/12/03 00:06:05;;;;;;;46.72;18.67;;;1.10;78.30;;;;;;4992123;28;20058;-63
2020/12/03 00:08:35;;;;;;;43.15;17.70;;;1.10;77.40;;;;;;5003230;28;20034;-64
2020/12/03 00:11:01;;;;;;;44.60;18.52;;;1.10;77.50;;;;;;4998566;28;20031;-64
2020/12/03 00:13:29;;;;;;;43.80;18.50;;;1.10;77.40;;;;;;5002072;28;20030;-63
2020/12/03 00:15:58;;;;;;;44.33;18.42;;;1.20;77.60;;;;;;4999260;28;20034;-64
2020/12/03 00:18:26;;;;;;;47.08;19.27;;;1.10;77.40;;;;;;4999126;28;20026;-63
2020/12/03 00:20:53;;;;;;;50.30;19.30;;;1.10;77.40;;;;;;5010371;28;20510;-63
2020/12/03 00:23:19;;;;;;;48.60;18.38;;;1.10;77.30;;;;;;5019885;28;20443;-64
2020/12/03 00:25:46;;;;;;;48.83;19.33;;;1.00;77.40;;;;;;5017442;28;20030;-64
2020/12/03 00:28:11;;;;;;;46.55;19.50;;;1.00;77.50;;;;;;5003018;28;20062;-64
2020/12/03 00:30:37;;;;;;;48.08;19.63;;;0.90;77.50;;;;;;4995128;28;20038;-63
2020/12/03 00:33:03;;;;;;;47.88;20.52;;;0.90;77.60;;;;;;5000230;28;20068;-64
2020/12/03 00:35:28;;;;;;;48.85;19.67;;;0.90;77.60;;;;;;5014257;28;20508;-64
2020/12/03 00:37:54;;;;;;;52.00;20.90;;;0.80;77.80;;;;;;5004741;28;20034;-63
2020/12/03 00:40:21;;;;;;;52.40;20.83;;;0.80;78.00;;;;;;5007840;28;20037;-64
2020/12/03 00:42:46;;;;;;;49.40;19.58;;;0.80;78.10;;;;;;4999387;28;20060;-63
2020/12/03 00:45:15;;;;;;;52.15;21.23;;;0.80;78.20;;;;;;5019384;28;20493;-64
2020/12/03 00:47:41;;;;;;;52.83;20.58;;;0.70;78.10;;;;;;5021160;28;20049;-63
2020/12/03 00:50:11;;;;;;;55.45;21.35;;;0.70;78.20;;;;;;5005550;28;20121;-63
2020/12/03 00:52:36;;;;;;;50.30;20.02;;;0.70;78.30;;;;;;4993559;28;20042;-63
2020/12/03 00:55:04;;;;;;;50.00;21.23;;;0.70;78.30;;;;;;5001505;28;20041;-63
2020/12/03 00:57:30;;;;;;;56.53;19.85;;;0.70;78.30;;;;;;4996034;28;20060;-63
2020/12/03 00:59:55;;;;;;;54.95;21.38;;;0.70;78.30;;;;;;5011383;28;20501;-63
2020/12/03 01:02:21;;;;;;;51.03;19.30;;;0.60;78.30;;;;;;4999957;28;20165;-62
2020/12/03 01:04:46;;;;;;;53.20;20.25;;;0.70;78.60;;;;;;4992105;28;20096;-63
2020/12/03 01:07:12;;;;;;;49.97;19.60;;;0.70;78.60;;;;;;5007884;28;20512;-63
2020/12/03 01:09:39;;;;;;;51.55;19.65;;;0.70;78.60;;;;;;5031142;28;20032;-63
2020/12/03 01:12:06;;;;;;;55.22;21.08;;;0.70;78.70;;;;;;4999728;28;20053;-62
2020/12/03 01:14:34;;;;;;;53.20;20.60;;;0.70;78.90;;;;;;5002232;28;20070;-63
2020/12/03 01:17:07;;;;;;;50.50;20.02;;;0.70;78.90;;;;;;5004184;28;20413;-63
2020/12/03 01:19:32;;;;;;;48.10;20.02;;;0.70;78.80;;;;;;5006643;28;20128;-63
2020/12/03 01:21:58;;;;;;;51.78;20.95;;;0.70;78.80;;;;;;5004490;28;20125;-63
2020/12/03 01:24:24;;;;;;;54.90;21.63;;;0.80;78.80;;;;;;5007628;28;20042;-64
2020/12/03 01:26:49;;;;;;;51.75;20.85;;;0.70;78.60;;;;;;5013419;28;20057;-63
2020/12/03 01:29:19;;;;;;;55.67;21.10;;;0.80;78.60;;;;;;5000946;28;20503;-63
2020/12/03 01:31:45;;;;;;;53.72;20.85;;;0.80;78.60;;;;;;4994646;28;20444;-63
2020/12/03 01:34:11;;;;;;;52.33;19.42;;;0.70;78.50;;;;;;5004601;28;20035;-62
2020/12/03 01:36:37;;;;;;;53.28;20.98;;;0.70;78.60;;;;;;4993417;28;20034;-64
2020/12/03 01:39:05;;;;;;;56.97;21.98;;;0.70;78.80;;;;;;5001833;28;20048;-63
2020/12/03 01:41:31;;;;;;;53.20;20.98;;;0.70;78.80;;;;;;5010903;28;20034;-63
2020/12/03 01:43:56;;;;;;;50.20;19.17;;;0.70;78.90;;;;;;4995179;28;20504;-64
2020/12/03 01:46:23;;;;;;;51.38;20.40;;;0.80;79.00;;;;;;5005909;28;20034;-63
2020/12/03 01:48:52;;;;;;;49.22;20.80;;;0.80;79.00;;;;;;5001049;28;20034;-64
2020/12/03 01:51:25;;;;;;;50.90;20.35;;;0.80;79.00;;;;;;4995547;28;20030;-63
2020/12/03 01:54:00;;;;;;;49.65;20.92;;;0.80;78.90;;;;;;5007967;28;20068;-64
2020/12/03 01:56:31;;;;;;;50.22;20.63;;;0.90;78.90;;;;;;4997315;28;20034;-64
2020/12/03 01:59:00;;;;;;;50.30;20.45;;;0.90;78.80;;;;;;4996324;28;20042;-64
2020/12/03 02:01:26;;;;;;;50.78;20.17;;;1.00;79.50;;;;;;4997057;28;20432;-63
2020/12/03 02:03:51;;;;;;;48.53;20.42;;;0.90;78.60;;;;;;4998105;28;20034;-64
2020/12/03 02:06:29;;;;;;;48.78;20.05;;;0.90;78.60;;;;;;5000253;28;20034;-63
2020/12/03 02:08:55;;;;;;;46.45;19.60;;;1.00;78.70;;;;;;4997699;28;20084;-62
2020/12/03 02:11:21;;;;;;;46.42;19.05;;;1.00;78.80;;;;;;4994726;28;20524;-63
2020/12/03 02:13:59;;;;;;;50.17;20.50;;;1.00;78.60;;;;;;4997656;28;20034;-62
2020/12/03 02:16:29;;;;;;;50.75;20.65;;;1.10;78.70;;;;;;5004045;28;20037;-62
2020/12/03 02:18:55;;;;;;;48.28;19.38;;;1.10;78.60;;;;;;5003793;28;20058;-63
2020/12/03 02:21:20;;;;;;;44.95;19.52;;;1.10;78.50;;;;;;4995485;28;20486;-62
2020/12/03 02:23:46;;;;;;;47.08;19.13;;;1.10;78.50;;;;;;5004227;28;20416;-62
2020/12/03 02:26:13;;;;;;;49.65;20.77;;;1.10;78.50;;;;;;4990264;28;20034;-63
2020/12/03 02:28:39;;;;;;;44.50;19.45;;;1.20;78.50;;;;;;5019599;28;20465;-63
2020/12/03 02:31:05;;;;;;;47.30;19.80;;;1.20;78.30;;;;;;4989705;28;20062;-63
2020/12/03 02:33:31;;;;;;;46.05;19.50;;;1.20;79.20;;;;;;4990327;28;20070;-62
2020/12/03 02:35:57;;;;;;;44.70;19.17;;;1.20;78.40;;;;;;4998091;28;20501;-63
2020/12/03 02:38:24;;;;;;;44.47;19.55;;;1.20;78.50;;;;;;4989340;28;20034;-63
2020/12/03 02:40:50;;;;;;;40.75;19.27;;;1.20;78.50;;;;;;4997448;28;20030;-63
2020/12/03 02:43:16;;;;;;;44.22;19.45;;;1.20;78.50;;;;;;4992916;28;20111;-64
2020/12/03 02:45:43;;;;;;;47.05;19.77;;;1.20;78.50;;;;;;4991031;28;20041;-63
2020/12/03 02:48:09;;;;;;;47.15;19.58;;;1.20;78.40;;;;;;5015561;28;20098;-63
2020/12/03 02:50:34;;;;;;;47.67;19.77;;;1.20;78.30;;;;;;4990461;28;20433;-63
2020/12/03 02:53:00;;;;;;;45.47;19.20;;;1.30;78.40;;;;;;4987995;28;20587;-63
2020/12/03 02:55:25;;;;;;;43.33;19.90;;;1.30;78.30;;;;;;5007421;28;20053;-62
2020/12/03 02:57:51;;;;;;;50.65;19.17;;;1.30;78.40;;;;;;4993326;28;20038;-63
2020/12/03 03:00:17;;;;;;;45.95;19.15;;;1.30;78.30;;;;;;4991148;28;20038;-63
2020/12/03 03:02:42;;;;;;;50.97;20.42;;;1.30;78.30;;;;;;4994399;28;20041;-64
2020/12/03 03:05:09;;;;;;;44.28;19.33;;;1.30;78.30;;;;;;4989345;28;20035;-63
2020/12/03 03:07:34;;;;;;;47.92;19.33;;;1.30;78.20;;;;;;5001849;28;20034;-64
2020/12/03 03:10:00;;;;;;;42.63;18.80;;;1.30;78.30;;;;;;4989508;28;20065;-64
2020/12/03 03:12:25;;;;;;;42.83;19.10;;;1.30;78.20;;;;;;5000744;28;20598;-64
2020/12/03 03:14:53;;;;;;;45.33;18.77;;;1.30;78.20;;;;;;5003118;28;20059;-64
2020/12/03 03:17:19;;;;;;;41.83;18.13;;;1.30;78.20;;;;;;4990976;28;20030;-64
2020/12/03 03:19:45;;;;;;;42.63;18.85;;;1.30;78.30;;;;;;4989959;28;20505;-64
2020/12/03 03:22:10;;;;;;;46.78;20.05;;;1.30;78.30;;;;;;5022887;28;20038;-64
2020/12/03 03:24:36;;;;;;;50.05;21.23;;;1.30;78.40;;;;;;4995651;28;20077;-63
2020/12/03 03:27:01;;;;;;;43.67;19.55;;;1.40;78.30;;;;;;4992751;28;20133;-63
2020/12/03 03:29:27;;;;;;;46.72;20.20;;;1.30;78.10;;;;;;4989790;28;20092;-62
2020/12/03 03:31:53;;;;;;;44.72;20.17;;;1.30;78.10;;;;;;4989945;28;20035;-63
2020/12/03 03:34:18;;;;;;;50.30;20.45;;;1.30;78.10;;;;;;4995570;28;20037;-63
2020/12/03 03:36:44;;;;;;;47.63;21.00;;;1.30;78.20;;;;;;5023191;28;20065;-62
2020/12/03 03:39:15;;;;;;;44.63;20.48;;;1.20;78.30;;;;;;4998509;28;20034;-63
2020/12/03 03:41:41;;;;;;;47.67;19.50;;;1.20;78.30;;;;;;5000990;28;20091;-64
2020/12/03 03:44:07;;;;;;;39.55;18.05;;;1.20;78.50;;;;;;5026198;28;20037;-63
2020/12/03 03:46:33;;;;;;;39.53;17.65;;;1.20;78.60;;;;;;5009649;28;20038;-64
2020/12/03 03:48:58;;;;;;;44.42;19.35;;;1.20;78.60;;;;;;4996635;28;20033;-64
2020/12/03 03:51:24;;;;;;;44.53;19.33;;;1.20;78.70;;;;;;4993477;28;20039;-63
2020/12/03 03:53:50;;;;;;;43.65;19.88;;;1.20;78.70;;;;;;4998752;28;20026;-63
2020/12/03 03:56:15;;;;;;;38.92;17.92;;;1.30;78.80;;;;;;4990970;28;20541;-63
2020/12/03 03:58:41;;;;;;;45.33;18.95;;;1.30;78.70;;;;;;4997541;28;20038;-64
2020/12/03 04:01:07;;;;;;;42.40;18.77;;;1.40;78.80;;;;;;5002422;28;20062;-64
2020/12/03 04:03:33;;;;;;;41.40;18.90;;;1.40;78.80;;;;;;4992421;28;20073;-64
2020/12/03 04:05:59;;;;;;;43.08;19.17;;;1.50;78.80;;;;;;4992673;28;20082;-64
2020/12/03 04:08:26;;;;;;;41.83;18.25;;;1.50;78.60;;;;;;5009329;28;20046;-64
2020/12/03 04:10:52;;;;;;;38.20;17.17;;;1.60;78.60;;;;;;4991068;28;20094;-64
2020/12/03 04:13:19;;;;;;;48.95;23.77;;;1.60;78.50;;;;;;5000190;28;20100;-64
2020/12/03 04:15:45;;;;;;;42.80;19.55;;;1.60;78.30;;;;;;5007240;28;20045;-64
2020/12/03 04:18:10;;;;;;;60.00;29.63;;;1.60;78.20;;;;;;5002933;28;20042;-64
2020/12/03 04:20:36;;;;;;;45.10;21.52;;;1.60;78.10;;;;;;4992222;28;20548;-63
2020/12/03 04:23:02;;;;;;;42.38;19.33;;;1.60;78.10;;;;;;5005560;28;20048;-64
2020/12/03 04:25:28;;;;;;;45.63;19.98;;;1.60;78.00;;;;;;4998015;28;20042;-64
2020/12/03 04:27:54;;;;;;;43.40;21.58;;;1.60;78.00;;;;;;5011091;28;20038;-64
2020/12/03 04:30:20;;;;;;;46.22;21.67;;;1.60;78.00;;;;;;5007831;28;20034;-64
2020/12/03 04:32:47;;;;;;;41.25;19.40;;;1.60;78.10;;;;;;5007755;28;20095;-64
2020/12/03 04:35:17;;;;;;;46.75;20.33;;;1.60;78.10;;;;;;5064350;22;20136;-66
2020/12/03 04:37:44;;;;;;;43.60;19.50;;;1.60;78.30;;;;;;5061202;28;20094;-66
2020/12/03 04:40:33;;;;;;;44.47;20.38;;;1.60;78.30;;;;;;5059608;28;21848;-66
2020/12/03 04:43:05;;;;;;;42.88;19.23;;;1.60;78.30;;;;;;5060688;28;20052;-66
2020/12/03 04:45:37;;;;;;;46.67;20.80;;;1.60;78.40;;;;;;5058159;28;20603;-66
2020/12/03 04:48:10;;;;;;;44.75;20.02;;;1.60;78.30;;;;;;5064495;28;20041;-66
2020/12/03 04:51:02;;;;;;;45.15;19.67;;;1.60;78.30;;;;;;5052111;28;20033;-66
2020/12/03 04:53:41;;;;;;;43.08;19.35;;;1.60;78.30;;;;;;5059466;28;20036;-66
2020/12/03 04:56:13;;;;;;;41.58;19.50;;;1.70;78.30;;;;;;5057678;28;20025;-66
2020/12/03 04:59:04;;;;;;;44.13;19.80;;;1.60;78.30;;;;;;5061762;28;20039;-66
2020/12/03 05:01:57;;;;;;;38.28;18.52;;;1.70;78.30;;;;;;5060312;28;20123;-66
2020/12/03 05:05:05;;;;;;;43.72;20.25;;;1.70;78.30;;;;;;5065697;28;20112;-66
2020/12/03 05:07:32;;;;;;;39.08;18.17;;;1.70;78.20;;;;;;5031671;28;20167;-66
2020/12/03 05:10:08;;;;;;;40.47;18.75;;;1.70;78.30;;;;;;5068512;28;20028;-65
2020/12/03 05:12:40;;;;;;;42.30;18.40;;;1.70;78.30;;;;;;5061821;28;20121;-66
2020/12/03 05:15:23;;;;;;;38.80;18.45;;;1.70;78.40;;;;;;5064463;28;20119;-65
2020/12/03 05:18:20;;;;;;;40.05;18.73;;;1.70;79.10;;;;;;5069398;28;20388;-66
2020/12/03 05:21:01;;;;;;;40.00;18.98;;;1.80;78.30;;;;;;5067323;28;20094;-66
2020/12/03 05:23:34;;;;;;;39.38;18.13;;;1.80;78.20;;;;;;5080526;28;20035;-65
2020/12/03 05:26:02;;;;;;;39.17;18.92;;;1.80;78.10;;;;;;5063848;28;20612;-66
2020/12/03 05:28:36;;;;;;;41.67;19.27;;;1.80;78.10;;;;;;5052383;28;20101;-67
2020/12/03 05:31:12;;;;;;;42.75;19.63;;;1.80;78.00;;;;;;5058584;28;20045;-67
2020/12/03 05:33:38;;;;;;;38.33;17.83;;;1.80;78.00;;;;;;5068364;28;20040;-66
2020/12/03 05:36:16;;;;;;;39.33;18.73;;;1.80;78.00;;;;;;5063656;28;20041;-66
2020/12/03 05:38:41;;;;;;;36.28;18.20;;;1.90;77.90;;;;;;5062933;28;20029;-66
2020/12/03 05:41:13;;;;;;;41.83;19.08;;;1.90;78.00;;;;;;5064536;28;20033;-66
2020/12/03 05:43:39;;;;;;;34.05;17.10;;;1.90;77.60;;;;;;5059981;28;20041;-66
2020/12/03 05:46:05;;;;;;;41.17;18.70;;;1.90;77.60;;;;;;5061886;28;20051;-67
2020/12/03 05:48:30;;;;;;;33.78;16.73;;;1.90;77.10;;;;;;5065064;28;20040;-67
2020/12/03 05:50:56;;;;;;;36.22;17.77;;;1.90;77.10;;;;;;5067857;28;20132;-67
2020/12/03 05:53:24;;;;;;;33.88;16.95;;;1.90;77.10;;;;;;5068538;28;20090;-66
2020/12/03 05:55:51;;;;;;;41.58;18.40;;;1.90;77.20;;;;;;5069565;28;20722;-66
2020/12/03 05:58:16;;;;;;;40.75;18.73;;;1.90;77.30;;;;;;5069365;28;20463;-67
2020/12/03 06:00:43;;;;;;;37.80;18.73;;;1.90;77.10;;;;;;5068925;28;20131;-66
2020/12/03 06:03:19;;;;;;;42.22;19.30;;;1.90;77.30;;;;;;5069688;28;20037;-67
2020/12/03 06:06:14;;;;;;;41.22;19.73;;;1.90;77.30;;;;;;5064066;28;20037;-67
2020/12/03 06:08:39;;;;;;;44.63;19.50;;;1.90;77.30;;;;;;5069069;28;20040;-67
2020/12/03 06:11:23;;;;;;;38.95;18.13;;;1.90;77.30;;;;;;5067146;28;20282;-67
2020/12/03 06:14:21;;;;;;;39.83;19.30;;;2.00;77.30;;;;;;5061017;28;20036;-67
2020/12/03 06:17:05;;;;;;;40.58;19.85;;;2.00;77.10;;;;;;5013994;28;20120;-67
2020/12/03 06:19:39;;;;;;;46.75;22.73;;;1.90;77.10;;;;;;5059312;28;20453;-67
2020/12/03 06:22:22;;;;;;;39.63;19.35;;;2.00;77.30;;;;;;5062503;28;20040;-67
2020/12/03 06:25:25;;;;;;;43.42;19.25;;;2.00;77.20;;;;;;5066966;28;20032;-66
2020/12/03 06:27:53;;;;;;;48.58;23.90;;;2.00;77.20;;;;;;5049942;28;20059;-66
2020/12/03 06:30:24;;;;;;;49.25;21.92;;;2.00;77.40;;;;;;5065544;28;20040;-66
2020/12/03 06:32:59;;;;;;;47.95;20.88;;;1.90;77.40;;;;;;5068360;28;20503;-67
2020/12/03 06:36:14;;;;;;;43.22;21.25;;;2.00;77.40;;;;;;5065122;28;20040;-67
2020/12/03 06:39:15;;;;;;;45.85;21.10;;;2.00;77.40;;;;;;5067778;28;20048;-67
2020/12/03 06:42:06;;;;;;;44.70;20.13;;;2.00;77.40;;;;;;5065328;28;20245;-67
2020/12/03 06:44:58;;;;;;;55.45;22.45;;;2.00;77.40;;;;;;5066525;28;20036;-66
2020/12/03 06:47:34;;;;;;;54.97;23.77;;;2.00;77.40;;;;;;5049419;28;20036;-67
2020/12/03 06:50:21;;;;;;;62.00;27.45;;;2.00;77.50;;;;;;5062806;28;20110;-67
2020/12/03 06:53:29;;;;;;;52.75;24.45;;;2.00;77.60;;;;;;5068211;28;20106;-66
2020/12/03 06:56:23;;;;;;;46.08;21.92;;;2.00;77.60;;;;;;5067663;28;20505;-65
2020/12/03 06:59:04;;;;;;;67.70;33.92;;;2.00;77.60;;;;;;5046483;28;20112;-66
2020/12/03 07:02:04;;;;;;;46.97;20.75;;;2.00;77.60;;;;;;5069118;28;20029;-66
2020/12/03 07:04:52;;;;;;;47.10;23.65;;;2.00;77.40;;;;;;5016813;28;20029;-66
2020/12/03 07:07:41;;;;;;;45.03;22.48;;;2.00;77.40;;;;;;5061415;28;20040;-67
2020/12/03 07:10:25;;;;;;;46.47;23.60;;;1.90;77.60;;;;;;5066582;28;20063;-66
2020/12/03 07:13:22;;;;;;;50.70;24.50;;;1.90;77.80;;;;;;5066303;28;20475;-65
2020/12/03 07:16:06;;;;;;;45.95;21.77;;;1.90;77.80;;;;;;5066885;28;20557;-66
2020/12/03 07:19:26;;;;;;;43.22;21.02;;;1.80;77.90;;;;;;5066237;28;20036;-65
2020/12/03 07:22:18;;;;;;;46.40;20.75;;;1.80;78.10;;;;;;5048879;28;20037;-65
2020/12/03 07:24:47;;;;;;;44.65;21.35;;;1.80;78.20;;;;;;5063763;28;20037;-65
2020/12/03 07:27:21;;;;;;;46.45;23.05;;;1.80;78.10;;;;;;5070642;28;20036;-66
2020/12/03 07:29:47;;;;;;;;;;;1.80;78.40;;;;;;5070670;28;20052;-66
2020/12/03 07:32:47;;;;;;;42.25;19.38;;;1.80;78.50;;;;;;5069208;28;20390;-65
2020/12/03 07:35:30;;;;;;;41.63;19.80;;;1.80;78.40;;;;;;5064420;28;20506;-65
2020/12/03 07:38:15;;;;;;;43.28;20.67;;;1.80;78.50;;;;;;5072300;28;20036;-65
2020/12/03 07:40:40;;;;;;;49.83;21.70;;;1.80;78.50;;;;;;5071292;28;20499;-65
2020/12/03 07:43:26;;;;;;;42.03;20.17;;;1.80;78.50;;;;;;5072251;28;20337;-66
2020/12/03 07:45:51;;;;;;;44.10;19.63;;;1.80;78.60;;;;;;5072172;28;20032;-65
2020/12/03 07:48:31;;;;;;;43.78;19.40;;;1.80;79.40;;;;;;5071384;28;20062;-65
2020/12/03 07:51:03;;;;;;;48.30;21.35;;;1.80;78.70;;;;;;5063715;28;20060;-65
2020/12/03 07:53:32;;;;;;;43.33;21.05;;;1.80;78.70;;;;;;5071811;28;20511;-65
2020/12/03 07:55:58;;;;;;;46.28;21.13;;;1.80;78.70;;;;;;5072104;28;20036;-65
2020/12/03 07:58:44;;;;;;;57.75;27.35;;;1.80;78.70;;;;;;5071246;28;20463;-65
2020/12/03 08:01:30;;;;;;;45.75;21.75;;;1.80;78.90;;;;;;5062850;28;20061;-65
2020/12/03 08:04:08;;;;;;;43.83;21.48;;;1.80;78.90;;;;;;5054650;28;20033;-66
2020/12/03 08:06:38;;;;;;;47.38;21.92;;;1.80;78.80;;;;;;5070008;28;20056;-66
2020/12/03 08:09:04;;;;;;;43.20;20.80;;;1.80;78.80;;;;;;5071452;28;20021;-66
2020/12/03 08:11:44;;;;;;;48.65;22.35;;;1.80;78.80;;;;;;5072175;28;20036;-65
2020/12/03 08:14:31;;;;;;;40.00;19.92;;;1.80;79.10;;;;;;5070274;28;20503;-65
2020/12/03 08:16:58;;;;;;;49.10;21.83;;;1.80;79.00;;;;;;5064235;28;20055;-66
2020/12/03 08:19:29;;;;;;;46.05;21.23;;;1.80;79.00;;;;;;5064698;28;20029;-65
2020/12/03 08:21:54;;;;;;;42.92;21.02;;;1.80;79.00;;;;;;5065016;28;20127;-65
2020/12/03 08:24:32;;;;;;;44.28;20.17;;;1.80;79.10;;;;;;5071000;28;20124;-66
2020/12/03 08:27:06;;;;;;;47.55;21.60;;;1.80;79.00;;;;;;5071885;28;20032;-65
2020/12/03 08:29:38;;;;;;;;;;;1.80;79.00;;;;;;5071614;28;20028;-66
2020/12/03 08:32:04;;;;;;;47.45;21.92;;;1.90;79.20;;;;;;5068029;28;19912;-65
2020/12/03 08:34:37;;;;;;;51.63;23.75;;;1.80;78.90;;;;;;5064134;28;20036;-65
2020/12/03 08:37:05;;;;;;;54.95;24.80;;;1.90;79.10;;;;;;5060727;28;20612;-66
2020/12/03 08:39:31;;;;;;;47.50;22.27;;;1.90;79.20;;;;;;5064732;28;20127;-65
2020/12/03 08:41:58;;;;;;;52.05;22.00;;;1.90;79.30;;;;;;5070623;28;20067;-65
2020/12/03 08:44:24;;;;;;;43.83;21.20;;;1.90;79.20;;;;;;5066861;28;20036;-65
2020/12/03 08:46:53;;;;;;;43.42;20.52;;;1.90;79.30;;;;;;5071006;28;20025;-66
2020/12/03 08:49:23;;;;;;;42.95;19.95;;;2.00;79.30;;;;;;5070757;28;20028;-64
2020/12/03 08:51:50;;;;;;;46.42;22.23;;;2.00;79.20;;;;;;5070711;28;20032;-65
2020/12/03 08:54:23;;;;;;;50.17;23.77;;;2.00;79.20;;;;;;5070746;28;20098;-64
2020/12/03 08:57:10;;;;;;;44.95;22.10;;;2.00;79.20;;;;;;5070440;28;20032;-65
2020/12/03 09:00:01;;;;;;;47.28;21.45;;;2.10;79.20;;;;;;5070707;28;20048;-65
2020/12/03 09:02:30;;;;;;;49.78;22.85;;;2.10;79.20;;;;;;5069663;28;20082;-65
2020/12/03 09:04:59;;;;;;;100.07;34.35;;;2.10;79.20;;;;;;5070563;28;20038;-65
2020/12/03 09:07:29;;;;;;;49.47;22.23;;;2.10;79.20;;;;;;5070631;28;20053;-65
2020/12/03 09:09:58;;;;;;;46.28;21.27;;;2.20;79.20;;;;;;5070600;28;20033;-65
2020/12/03 09:12:28;;;;;;;43.72;21.50;;;2.20;79.10;;;;;;5066275;28;20038;-64
2020/12/03 09:14:58;;;;;;;42.13;19.55;;;2.30;79.10;;;;;;5066754;28;20025;-65
2020/12/03 09:17:28;;;;;;;47.13;21.50;;;2.30;79.10;;;;;;5070077;28;20039;-65
2020/12/03 09:19:54;;;;;;;43.67;20.40;;;2.30;79.10;;;;;;5066984;28;20028;-65
2020/12/03 09:22:23;;;;;;;44.03;19.80;;;2.30;79.00;;;;;;5067298;28;20507;-65
2020/12/03 09:24:50;;;;;;;48.63;21.40;;;2.40;79.20;;;;;;5068834;28;20033;-66
2020/12/03 09:27:17;;;;;;;42.88;20.67;;;2.40;79.20;;;;;;5066039;28;20078;-65
2020/12/03 09:29:53;;;;;;;40.60;19.48;;;2.40;79.20;;;;;;5070291;28;20319;-65
2020/12/03 09:32:23;;;;;;;45.08;21.50;;;2.40;79.20;;;;;;5069518;28;20051;-65
2020/12/03 09:34:52;;;;;;;42.05;20.25;;;2.50;79.20;;;;;;5065594;28;20452;-65
2020/12/03 09:37:18;;;;;;;49.20;20.90;;;2.50;79.00;;;;;;5069732;28;20040;-65
2020/12/03 09:39:44;;;;;;;46.72;21.70;;;2.50;79.00;;;;;;5070054;28;20032;-64
2020/12/03 09:42:15;;;;;;;53.70;25.70;;;2.60;79.00;;;;;;5069881;28;20449;-64
2020/12/03 09:44:46;;;;;;;47.72;23.08;;;2.60;78.90;;;;;;5066212;28;20578;-65
2020/12/03 09:47:18;;;;;;;44.88;21.63;;;2.60;79.00;;;;;;5069837;28;20045;-65
2020/12/03 09:49:45;;;;;;;42.53;20.33;;;2.70;79.00;;;;;;5069608;28;20029;-65
2020/12/03 09:52:12;;;;;;;43.33;20.13;;;2.70;78.90;;;;;;5069379;28;20368;-65
2020/12/03 09:54:39;;;;;;;42.78;20.42;;;2.70;78.80;;;;;;5068924;28;20078;-65
2020/12/03 09:57:08;;;;;;;40.28;19.98;;;2.70;78.80;;;;;;5069956;28;20043;-65
2020/12/03 09:59:36;;;;;;;43.03;21.30;;;2.80;78.80;;;;;;5068819;28;20523;-65
2020/12/03 10:02:07;;;;;;;40.58;19.75;;;2.80;78.70;;;;;;5060306;28;20036;-63
2020/12/03 10:05:01;;;;;;;40.60;21.08;;;2.90;78.80;;;;;;5065971;28;20510;-65
2020/12/03 10:07:48;;;;;;;44.03;22.15;;;2.90;78.80;;;;;;5068511;28;20562;-65
2020/12/03 10:10:14;;;;;;;44.25;20.88;;;2.90;78.60;;;;;;5063921;28;20040;-65
2020/12/03 10:13:08;;;;;;;46.83;23.15;;;2.90;78.60;;;;;;5068287;28;20063;-66
2020/12/03 10:15:51;;;;;;;40.33;20.83;;;3.00;78.60;;;;;;5049991;28;20035;-66
2020/12/03 10:18:43;;;;;;;41.47;21.17;;;3.00;78.60;;;;;;5064900;28;20040;-65
2020/12/03 10:21:09;;;;;;;44.33;22.13;;;3.10;78.40;;;;;;5067134;28;20040;-65
2020/12/03 10:24:07;;;;;;;50.83;26.05;;;3.10;78.50;;;;;;5068891;28;20119;-65
2020/12/03 10:26:50;;;;;;;41.05;21.10;;;3.10;78.10;;;;;;5068878;28;20041;-65
2020/12/03 10:29:30;;;;;;;39.28;19.38;;;3.20;78.20;;;;;;5064090;28;20033;-65
2020/12/03 10:32:07;;;;;;;40.00;20.58;;;3.20;78.30;;;;;;5068313;28;20029;-65
2020/12/03 10:34:41;;;;;;;39.22;19.83;;;3.20;78.20;;;;;;5074626;22;20038;-64
2020/12/03 10:37:16;;;;;;;41.97;20.63;;;3.20;78.10;;;;;;5063212;28;20028;-64
2020/12/03 10:40:14;;;;;;;41.50;20.27;;;3.20;78.10;;;;;;5067915;28;20040;-64
2020/12/03 10:42:48;;;;;;;41.33;20.45;;;3.20;78.00;;;;;;5066702;28;20056;-63
2020/12/03 10:45:19;;;;;;;41.88;22.05;;;3.30;78.20;;;;;;5066753;28;20049;-64
2020/12/03 10:47:56;;;;;;;40.47;21.48;;;3.30;78.20;;;;;;5046320;28;20063;-64
2020/12/03 10:50:51;;;;;;;41.67;20.80;;;3.30;78.10;;;;;;5048845;28;20033;-64
2020/12/03 10:53:22;;;;;;;43.65;21.23;;;3.30;78.00;;;;;;5036399;28;20519;-64
2020/12/03 10:56:00;;;;;;;42.55;20.05;;;3.30;78.00;;;;;;5043533;28;20573;-64
2020/12/03 10:58:38;;;;;;;39.90;19.95;;;3.40;78.10;;;;;;5043948;28;20573;-64
2020/12/03 11:01:14;;;;;;;39.08;20.05;;;3.40;78.10;;;;;;5046555;28;20408;-65
2020/12/03 11:03:40;;;;;;;38.63;20.73;;;3.40;78.10;;;;;;5045428;28;20349;-65
2020/12/03 11:06:06;;;;;;;41.25;18.98;;;3.40;78.10;;;;;;5027576;28;20107;-64
2020/12/03 11:08:38;;;;;;;39.20;19.30;;;3.50;78.10;;;;;;5046026;28;20667;-64
2020/12/03 11:11:07;;;;;;;40.20;20.25;;;3.50;78.00;;;;;;5046199;28;20025;-65
2020/12/03 11:13:33;;;;;;;42.55;20.98;;;3.50;77.80;;;;;;5048335;28;20407;-66
2020/12/03 11:16:02;;;;;;;38.70;19.08;;;3.50;77.60;;;;;;5049008;28;20724;-65
2020/12/03 11:18:32;;;;;;;33.97;17.60;;;3.60;77.50;;;;;;5048105;28;20037;-64
2020/12/03 11:21:02;;;;;;;30.27;16.73;;;3.40;77.40;;;;;;5043812;28;20040;-65
2020/12/03 11:23:29;;;;;;;34.83;17.70;;;3.50;77.40;;;;;;5049152;28;20562;-65
2020/12/03 11:26:07;;;;;;;30.80;16.55;;;3.40;77.40;;;;;;5047468;28;20079;-65
2020/12/03 11:28:39;;;;;;;30.90;15.70;;;3.50;77.30;;;;;;5048533;28;20078;-65
2020/12/03 11:31:07;;;;;;;31.45;16.63;;;3.50;77.40;;;;;;5048229;28;20032;-64
2020/12/03 11:33:41;;;;;;;27.90;15.27;;;3.50;77.30;;;;;;5046129;28;20901;-64
2020/12/03 11:36:15;;;;;;;28.85;15.32;;;3.60;77.20;;;;;;5045295;28;20028;-65
2020/12/03 11:38:53;;;;;;;29.13;15.07;;;3.60;76.90;;;;;;5038180;28;20048;-65
2020/12/03 11:41:24;;;;;;;26.25;15.23;;;3.60;77.10;;;;;;5037179;28;20117;-65
2020/12/03 11:47:31;;;;;;;26.50;14.50;;;3.70;76.90;;;;;;5017076;28;20034;-65
2020/12/03 11:49:53;;;;;;;24.27;14.23;;;3.70;77.00;;;;;;5047920;28;20053;-65
2020/12/03 11:52:19;;;;;;;23.52;13.82;;;3.70;76.80;;;;;;5047990;28;20496;-66
2020/12/03 11:54:46;;;;;;;23.80;13.65;;;3.80;76.70;;;;;;5047342;28;20068;-66
2020/12/03 11:57:16;;;;;;;24.60;14.20;;;3.70;76.60;;;;;;5050095;28;20033;-65
2020/12/03 11:59:42;;;;;;;22.75;13.23;;;3.70;76.40;;;;;;5047972;28;20040;-66
2020/12/03 12:02:10;;;;;;;21.70;12.95;;;3.70;76.40;;;;;;5050383;28;20123;-65
2020/12/03 12:04:45;;;;;;;23.23;13.20;;;3.80;76.20;;;;;;5053441;28;20036;-65
2020/12/03 12:12:07;;;;;;;21.90;13.10;;;3.80;76.40;;;;;;5049515;28;20040;-66
2020/12/03 12:14:33;;;;;;;21.05;12.68;;;3.80;76.20;;;;;;5050613;28;20025;-65
2020/12/03 12:16:59;;;;;;;20.73;12.60;;;3.90;76.30;;;;;;5051708;28;20045;-65
2020/12/03 12:19:25;;;;;;;21.98;12.80;;;3.90;76.10;;;;;;5050405;28;20044;-66
2020/12/03 12:21:52;;;;;;;22.23;12.30;;;3.90;76.00;;;;;;5051550;28;20427;-66
2020/12/03 12:24:17;;;;;;;20.95;12.80;;;3.90;76.00;;;;;;5051022;28;20037;-66
2020/12/03 12:26:43;;;;;;;22.77;13.07;;;3.90;76.00;;;;;;5045386;28;20074;-66
2020/12/03 12:29:08;;;;;;;23.42;12.70;;;4.00;76.00;;;;;;5045181;28;20063;-65
2020/12/03 12:31:34;;;;;;;22.48;13.00;;;4.00;76.00;;;;;;5050114;28;20342;-65
2020/12/03 12:33:59;;;;;;;20.70;12.93;;;4.00;76.00;;;;;;5052301;28;20029;-65
2020/12/03 12:36:25;;;;;;;20.77;12.63;;;4.00;76.00;;;;;;5052918;28;20070;-66
2020/12/03 12:38:51;;;;;;;24.25;13.43;;;4.00;75.90;;;;;;5052405;28;20496;-66
2020/12/03 12:41:16;;;;;;;20.70;12.82;;;4.00;76.10;;;;;;5049403;28;20369;-66
2020/12/03 12:43:42;;;;;;;18.33;11.75;;;4.10;76.20;;;;;;5051230;28;20044;-66
2020/12/03 12:46:07;;;;;;;22.85;12.52;;;4.10;76.00;;;;;;5053154;28;20033;-66
2020/12/03 12:48:33;;;;;;;23.55;12.43;;;4.10;75.90;;;;;;5059433;28;20563;-66
2020/12/03 12:50:59;;;;;;;18.98;11.65;;;4.10;75.80;;;;;;5050328;28;20224;-66
2020/12/03 12:53:24;;;;;;;20.33;12.20;;;4.10;75.70;;;;;;5064787;28;20043;-66
2020/12/03 12:55:50;;;;;;;23.42;13.48;;;4.10;75.70;;;;;;5059915;28;20487;-66
2020/12/03 12:58:15;;;;;;;22.75;13.00;;;4.10;75.80;;;;;;5071406;28;20063;-66
2020/12/03 13:00:41;;;;;;;21.73;13.00;;;4.10;75.70;;;;;;5054803;28;20040;-66
2020/12/03 13:03:07;;;;;;;34.92;18.65;;;4.20;75.70;;;;;;5050924;28;20040;-66
2020/12/03 13:05:32;;;;;;;23.85;14.45;;;4.10;75.40;;;;;;5050553;28;20064;-66
2020/12/03 13:07:58;;;;;;;25.45;14.73;;;4.10;75.20;;;;;;5048869;28;20047;-66
2020/12/03 13:10:24;;;;;;;21.15;13.32;;;4.10;75.00;;;;;;5047682;28;20037;-65